sensor_id;sensor_type;location;lat;lon;timestamp;temperature;humidity
45983;DHT22;31711;47.158;7.346;2022-08-03T00:00:12;19.50;99.90
45983;DHT22;31711;47.158;7.346;2022-08-03T00:02:41;19.50;99.90
45983;DHT22;31711;47.158;7.346;2022-08-03T00:05:07;19.40;99.90
45983;DHT22;31711;47.158;7.346;2022-08-03T00:07:34;19.40;99.90
45983;DHT22;31711;47.158;7.346;2022-08-03T00:10:00;19.30;99.90
45983;DHT22;31711;47.158;7.346;2022-08-03T00:12:26;19.30;99.90
45983;DHT22;31711;47.158;7.346;2022-08-03T00:14:52;19.30;99.90
45983;DHT22;31711;47.158;7.346;2022-08-03T00:17:18;19.20;99.90
45983;DHT22;31711;47.158;7.346;2022-08-03T00:19:44;19.20;99.90
45983;DHT22;31711;47.158;7.346;2022-08-03T00:22:09;19.20;99.90
45983;DHT22;31711;47.158;7.346;2022-08-03T00:24:35;19.10;99.90
45983;DHT22;31711;47.158;7.346;2022-08-03T00:27:01;19.10;99.90
45983;DHT22;31711;47.158;7.346;2022-08-03T00:29:27;19.10;99.90
45983;DHT22;31711;47.158;7.346;2022-08-03T00:31:53;19.00;99.90
45983;DHT22;31711;47.158;7.346;2022-08-03T00:34:19;19.00;99.90
45983;DHT22;31711;47.158;7.346;2022-08-03T00:36:45;18.90;99.90
45983;DHT22;31711;47.158;7.346;2022-08-03T00:39:11;18.90;99.90
45983;DHT22;31711;47.158;7.346;2022-08-03T00:41:37;18.90;99.90
45983;DHT22;31711;47.158;7.346;2022-08-03T00:44:03;18.90;99.90
45983;DHT22;31711;47.158;7.346;2022-08-03T00:46:29;18.80;99.90
45983;DHT22;31711;47.158;7.346;2022-08-03T00:48:55;18.80;99.90
45983;DHT22;31711;47.158;7.346;2022-08-03T00:51:21;18.80;99.90
45983;DHT22;31711;47.158;7.346;2022-08-03T00:53:48;18.70;99.90
45983;DHT22;31711;47.158;7.346;2022-08-03T00:56:15;18.60;99.90
45983;DHT22;31711;47.158;7.346;2022-08-03T00:58:45;18.70;99.90
45983;DHT22;31711;47.158;7.346;2022-08-03T01:01:11;18.50;99.90
45983;DHT22;31711;47.158;7.346;2022-08-03T01:03:37;18.50;99.90
45983;DHT22;31711;47.158;7.346;2022-08-03T01:06:16;18.40;99.90
45983;DHT22;31711;47.158;7.346;2022-08-03T01:09:11;18.40;99.90
45983;DHT22;31711;47.158;7.346;2022-08-03T01:12:07;18.40;99.90
45983;DHT22;31711;47.158;7.346;2022-08-03T01:14:50;18.30;99.90
45983;DHT22;31711;47.158;7.346;2022-08-03T01:17:24;18.30;99.90
45983;DHT22;31711;47.158;7.346;2022-08-03T01:20:01;18.30;99.90
45983;DHT22;31711;47.158;7.346;2022-08-03T01:22:34;18.30;99.90
45983;DHT22;31711;47.158;7.346;2022-08-03T01:30:08;18.20;99.90
45983;DHT22;31711;47.158;7.346;2022-08-03T01:35:18;18.20;99.90
45983;DHT22;31711;47.158;7.346;2022-08-03T01:37:55;18.10;99.90
45983;DHT22;31711;47.158;7.346;2022-08-03T01:40:24;18.10;99.90
45983;DHT22;31711;47.158;7.346;2022-08-03T01:42:51;18.00;99.90
45983;DHT22;31711;47.158;7.346;2022-08-03T01:45:20;18.00;99.90
45983;DHT22;31711;47.158;7.346;2022-08-03T01:47:48;17.90;99.90
45983;DHT22;31711;47.158;7.346;2022-08-03T01:50:17;18.00;99.90
45983;DHT22;31711;47.158;7.346;2022-08-03T01:52:45;18.00;99.90
45983;DHT22;31711;47.158;7.346;2022-08-03T01:55:12;17.90;99.90
45983;DHT22;31711;47.158;7.346;2022-08-03T01:57:42;17.80;99.90
45983;DHT22;31711;47.158;7.346;2022-08-03T02:00:09;17.70;99.90
45983;DHT22;31711;47.158;7.346;2022-08-03T02:02:37;17.60;99.90
45983;DHT22;31711;47.158;7.346;2022-08-03T02:05:06;17.60;99.90
45983;DHT22;31711;47.158;7.346;2022-08-03T02:07:33;17.60;99.90
45983;DHT22;31711;47.158;7.346;2022-08-03T02:10:00;17.60;99.90
45983;DHT22;31711;47.158;7.346;2022-08-03T02:12:29;17.60;99.90
45983;DHT22;31711;47.158;7.346;2022-08-03T02:14:56;17.60;99.90
45983;DHT22;31711;47.158;7.346;2022-08-03T02:17:25;17.60;99.90
45983;DHT22;31711;47.158;7.346;2022-08-03T02:19:53;17.50;99.90
45983;DHT22;31711;47.158;7.346;2022-08-03T02:22:22;17.50;99.90
45983;DHT22;31711;47.158;7.346;2022-08-03T02:24:50;17.50;99.90
45983;DHT22;31711;47.158;7.346;2022-08-03T02:27:22;17.50;99.90
45983;DHT22;31711;47.158;7.346;2022-08-03T02:29:54;17.40;99.90
45983;DHT22;31711;47.158;7.346;2022-08-03T02:32:29;17.40;99.90
45983;DHT22;31711;47.158;7.346;2022-08-03T02:34:57;17.40;99.90
45983;DHT22;31711;47.158;7.346;2022-08-03T02:37:28;17.40;99.90
45983;DHT22;31711;47.158;7.346;2022-08-03T02:40:03;17.40;99.90
45983;DHT22;31711;47.158;7.346;2022-08-03T02:42:35;17.30;99.90
45983;DHT22;31711;47.158;7.346;2022-08-03T02:45:05;17.30;99.90
45983;DHT22;31711;47.158;7.346;2022-08-03T02:47:34;17.30;99.90
45983;DHT22;31711;47.158;7.346;2022-08-03T02:50:02;17.30;99.90
45983;DHT22;31711;47.158;7.346;2022-08-03T02:52:29;17.30;99.90
45983;DHT22;31711;47.158;7.346;2022-08-03T02:54:59;17.30;99.90
45983;DHT22;31711;47.158;7.346;2022-08-03T02:57:27;17.20;99.90
45983;DHT22;31711;47.158;7.346;2022-08-03T02:59:56;17.10;99.90
45983;DHT22;31711;47.158;7.346;2022-08-03T03:02:23;17.10;99.90
45983;DHT22;31711;47.158;7.346;2022-08-03T03:04:51;17.10;99.90
45983;DHT22;31711;47.158;7.346;2022-08-03T03:07:18;17.10;99.90
45983;DHT22;31711;47.158;7.346;2022-08-03T03:09:45;17.10;99.90
45983;DHT22;31711;47.158;7.346;2022-08-03T03:12:12;17.00;99.90
45983;DHT22;31711;47.158;7.346;2022-08-03T03:14:39;17.00;99.90
45983;DHT22;31711;47.158;7.346;2022-08-03T03:17:06;17.00;99.90
45983;DHT22;31711;47.158;7.346;2022-08-03T03:19:34;17.00;99.90
45983;DHT22;31711;47.158;7.346;2022-08-03T03:22:02;17.00;99.90
45983;DHT22;31711;47.158;7.346;2022-08-03T03:24:29;16.90;99.90
45983;DHT22;31711;47.158;7.346;2022-08-03T03:26:56;17.00;99.90
45983;DHT22;31711;47.158;7.346;2022-08-03T03:29:23;17.00;99.90
45983;DHT22;31711;47.158;7.346;2022-08-03T03:31:49;17.00;99.90
45983;DHT22;31711;47.158;7.346;2022-08-03T03:34:15;17.00;99.90
45983;DHT22;31711;47.158;7.346;2022-08-03T03:36:41;17.00;99.90
45983;DHT22;31711;47.158;7.346;2022-08-03T03:39:07;16.90;99.90
45983;DHT22;31711;47.158;7.346;2022-08-03T03:41:34;16.90;99.90
45983;DHT22;31711;47.158;7.346;2022-08-03T03:43:59;16.90;99.90
45983;DHT22;31711;47.158;7.346;2022-08-03T03:46:25;16.90;99.90
45983;DHT22;31711;47.158;7.346;2022-08-03T03:48:51;16.80;99.90
45983;DHT22;31711;47.158;7.346;2022-08-03T03:51:18;16.80;99.90
45983;DHT22;31711;47.158;7.346;2022-08-03T03:53:57;16.80;99.90
45983;DHT22;31711;47.158;7.346;2022-08-03T03:56:24;16.80;99.90
45983;DHT22;31711;47.158;7.346;2022-08-03T03:58:50;16.80;99.90
45983;DHT22;31711;47.158;7.346;2022-08-03T04:01:16;16.80;99.90
45983;DHT22;31711;47.158;7.346;2022-08-03T04:03:42;16.80;99.90
45983;DHT22;31711;47.158;7.346;2022-08-03T04:06:08;16.70;99.90
45983;DHT22;31711;47.158;7.346;2022-08-03T04:08:53;16.70;99.90
45983;DHT22;31711;47.158;7.346;2022-08-03T04:11:29;16.80;99.90
45983;DHT22;31711;47.158;7.346;2022-08-03T04:14:01;16.70;99.90
45983;DHT22;31711;47.158;7.346;2022-08-03T04:16:31;16.70;99.90
45983;DHT22;31711;47.158;7.346;2022-08-03T04:19:01;16.70;99.90
45983;DHT22;31711;47.158;7.346;2022-08-03T04:21:29;16.80;99.90
45983;DHT22;31711;47.158;7.346;2022-08-03T04:23:59;16.80;99.90
45983;DHT22;31711;47.158;7.346;2022-08-03T04:26:29;16.80;99.90
45983;DHT22;31711;47.158;7.346;2022-08-03T04:28:56;16.80;99.90
45983;DHT22;31711;47.158;7.346;2022-08-03T04:31:23;16.80;99.90
45983;DHT22;31711;47.158;7.346;2022-08-03T04:33:52;16.80;99.90
45983;DHT22;31711;47.158;7.346;2022-08-03T04:36:24;16.80;99.90
45983;DHT22;31711;47.158;7.346;2022-08-03T04:41:22;17.00;99.90
45983;DHT22;31711;47.158;7.346;2022-08-03T04:43:50;17.00;99.90
45983;DHT22;31711;47.158;7.346;2022-08-03T04:46:19;17.00;99.90
45983;DHT22;31711;47.158;7.346;2022-08-03T04:48:47;17.00;99.90
45983;DHT22;31711;47.158;7.346;2022-08-03T04:51:14;17.10;99.90
45983;DHT22;31711;47.158;7.346;2022-08-03T04:53:41;17.10;99.90
45983;DHT22;31711;47.158;7.346;2022-08-03T04:56:07;17.20;99.90
45983;DHT22;31711;47.158;7.346;2022-08-03T04:58:33;17.30;99.90
45983;DHT22;31711;47.158;7.346;2022-08-03T05:00:59;17.30;99.90
45983;DHT22;31711;47.158;7.346;2022-08-03T05:03:25;17.30;99.90
45983;DHT22;31711;47.158;7.346;2022-08-03T05:05:54;17.40;99.90
45983;DHT22;31711;47.158;7.346;2022-08-03T05:08:20;17.40;99.90
45983;DHT22;31711;47.158;7.346;2022-08-03T05:10:46;17.50;99.90
45983;DHT22;31711;47.158;7.346;2022-08-03T05:13:12;17.60;99.90
45983;DHT22;31711;47.158;7.346;2022-08-03T05:15:39;17.70;99.90
45983;DHT22;31711;47.158;7.346;2022-08-03T05:18:06;17.80;99.90
45983;DHT22;31711;47.158;7.346;2022-08-03T05:20:32;17.80;99.90
45983;DHT22;31711;47.158;7.346;2022-08-03T05:22:58;17.90;99.90
45983;DHT22;31711;47.158;7.346;2022-08-03T05:25:26;18.00;99.90
45983;DHT22;31711;47.158;7.346;2022-08-03T05:27:52;17.90;99.90
45983;DHT22;31711;47.158;7.346;2022-08-03T05:30:18;17.80;99.90
45983;DHT22;31711;47.158;7.346;2022-08-03T05:32:44;17.80;99.90
45983;DHT22;31711;47.158;7.346;2022-08-03T05:35:10;17.90;99.90
45983;DHT22;31711;47.158;7.346;2022-08-03T05:37:36;18.00;99.90
45983;DHT22;31711;47.158;7.346;2022-08-03T05:40:03;18.20;99.90
45983;DHT22;31711;47.158;7.346;2022-08-03T05:42:29;18.20;99.90
45983;DHT22;31711;47.158;7.346;2022-08-03T05:44:55;18.30;99.90
45983;DHT22;31711;47.158;7.346;2022-08-03T05:47:21;18.40;99.90
45983;DHT22;31711;47.158;7.346;2022-08-03T05:49:47;18.40;99.90
45983;DHT22;31711;47.158;7.346;2022-08-03T05:52:13;18.60;99.90
45983;DHT22;31711;47.158;7.346;2022-08-03T05:54:39;18.60;99.90
45983;DHT22;31711;47.158;7.346;2022-08-03T05:57:05;18.60;99.90
45983;DHT22;31711;47.158;7.346;2022-08-03T05:59:31;18.80;99.90
45983;DHT22;31711;47.158;7.346;2022-08-03T06:01:57;19.00;99.90
45983;DHT22;31711;47.158;7.346;2022-08-03T06:04:23;19.10;99.90
45983;DHT22;31711;47.158;7.346;2022-08-03T06:06:49;19.10;99.90
45983;DHT22;31711;47.158;7.346;2022-08-03T06:09:16;19.00;99.90
45983;DHT22;31711;47.158;7.346;2022-08-03T06:11:42;19.20;99.90
45983;DHT22;31711;47.158;7.346;2022-08-03T06:14:08;19.30;99.90
45983;DHT22;31711;47.158;7.346;2022-08-03T06:16:34;19.30;99.90
45983;DHT22;31711;47.158;7.346;2022-08-03T06:19:00;19.40;99.90
45983;DHT22;31711;47.158;7.346;2022-08-03T06:21:26;19.60;99.90
45983;DHT22;31711;47.158;7.346;2022-08-03T06:23:52;19.70;99.90
45983;DHT22;31711;47.158;7.346;2022-08-03T06:26:18;19.70;99.90
45983;DHT22;31711;47.158;7.346;2022-08-03T06:28:44;19.90;99.90
45983;DHT22;31711;47.158;7.346;2022-08-03T06:31:11;20.00;99.90
45983;DHT22;31711;47.158;7.346;2022-08-03T06:33:36;20.10;99.90
45983;DHT22;31711;47.158;7.346;2022-08-03T06:36:03;20.10;99.90
45983;DHT22;31711;47.158;7.346;2022-08-03T06:38:29;20.20;99.90
45983;DHT22;31711;47.158;7.346;2022-08-03T06:40:55;20.40;99.90
45983;DHT22;31711;47.158;7.346;2022-08-03T06:43:20;20.50;99.90
45983;DHT22;31711;47.158;7.346;2022-08-03T06:45:46;20.50;99.90
45983;DHT22;31711;47.158;7.346;2022-08-03T06:48:12;20.60;99.90
45983;DHT22;31711;47.158;7.346;2022-08-03T06:50:40;20.60;99.90
45983;DHT22;31711;47.158;7.346;2022-08-03T06:53:06;20.80;99.90
45983;DHT22;31711;47.158;7.346;2022-08-03T06:55:33;20.90;99.90
45983;DHT22;31711;47.158;7.346;2022-08-03T06:57:59;20.90;99.90
45983;DHT22;31711;47.158;7.346;2022-08-03T07:00:25;21.00;99.90
45983;DHT22;31711;47.158;7.346;2022-08-03T07:02:53;21.20;99.90
45983;DHT22;31711;47.158;7.346;2022-08-03T07:05:19;21.30;99.90
45983;DHT22;31711;47.158;7.346;2022-08-03T07:07:45;21.40;99.90
45983;DHT22;31711;47.158;7.346;2022-08-03T07:10:11;21.50;99.90
45983;DHT22;31711;47.158;7.346;2022-08-03T07:12:38;21.60;99.90
45983;DHT22;31711;47.158;7.346;2022-08-03T07:15:06;21.70;99.90
45983;DHT22;31711;47.158;7.346;2022-08-03T07:17:34;21.80;99.90
45983;DHT22;31711;47.158;7.346;2022-08-03T07:20:01;21.80;99.90
45983;DHT22;31711;47.158;7.346;2022-08-03T07:22:29;21.90;99.90
45983;DHT22;31711;47.158;7.346;2022-08-03T07:24:55;22.00;99.90
45983;DHT22;31711;47.158;7.346;2022-08-03T07:27:21;22.20;99.90
45983;DHT22;31711;47.158;7.346;2022-08-03T07:29:47;22.20;99.90
45983;DHT22;31711;47.158;7.346;2022-08-03T07:32:13;22.50;99.90
45983;DHT22;31711;47.158;7.346;2022-08-03T07:34:39;22.50;99.90
45983;DHT22;31711;47.158;7.346;2022-08-03T07:37:05;22.60;99.90
45983;DHT22;31711;47.158;7.346;2022-08-03T07:39:31;22.70;99.90
45983;DHT22;31711;47.158;7.346;2022-08-03T07:41:57;22.80;99.90
45983;DHT22;31711;47.158;7.346;2022-08-03T07:44:22;23.00;99.90
45983;DHT22;31711;47.158;7.346;2022-08-03T07:46:48;23.10;99.90
45983;DHT22;31711;47.158;7.346;2022-08-03T07:49:15;23.10;99.90
45983;DHT22;31711;47.158;7.346;2022-08-03T07:51:41;23.30;99.90
45983;DHT22;31711;47.158;7.346;2022-08-03T07:54:07;23.40;99.90
45983;DHT22;31711;47.158;7.346;2022-08-03T07:56:35;23.50;99.90
45983;DHT22;31711;47.158;7.346;2022-08-03T07:59:02;23.60;99.90
45983;DHT22;31711;47.158;7.346;2022-08-03T08:01:28;23.70;99.90
45983;DHT22;31711;47.158;7.346;2022-08-03T08:03:54;23.80;99.90
45983;DHT22;31711;47.158;7.346;2022-08-03T08:06:21;23.80;99.90
45983;DHT22;31711;47.158;7.346;2022-08-03T08:08:47;23.90;99.90
45983;DHT22;31711;47.158;7.346;2022-08-03T08:11:13;23.90;99.90
45983;DHT22;31711;47.158;7.346;2022-08-03T08:13:39;24.00;99.90
45983;DHT22;31711;47.158;7.346;2022-08-03T08:16:05;24.10;99.90
45983;DHT22;31711;47.158;7.346;2022-08-03T08:18:31;24.20;99.90
45983;DHT22;31711;47.158;7.346;2022-08-03T08:20:57;24.10;99.90
45983;DHT22;31711;47.158;7.346;2022-08-03T08:23:23;24.20;99.90
45983;DHT22;31711;47.158;7.346;2022-08-03T08:25:50;24.30;99.90
45983;DHT22;31711;47.158;7.346;2022-08-03T08:28:20;24.50;99.90
45983;DHT22;31711;47.158;7.346;2022-08-03T08:30:46;24.50;99.90
45983;DHT22;31711;47.158;7.346;2022-08-03T08:33:13;24.70;99.90
45983;DHT22;31711;47.158;7.346;2022-08-03T08:35:39;24.80;99.90
45983;DHT22;31711;47.158;7.346;2022-08-03T08:38:05;24.80;99.90
45983;DHT22;31711;47.158;7.346;2022-08-03T08:40:31;24.90;98.90
45983;DHT22;31711;47.158;7.346;2022-08-03T08:42:57;24.90;99.90
45983;DHT22;31711;47.158;7.346;2022-08-03T08:45:23;25.00;98.80
45983;DHT22;31711;47.158;7.346;2022-08-03T08:47:49;25.10;99.60
45983;DHT22;31711;47.158;7.346;2022-08-03T08:50:21;25.00;99.90
45983;DHT22;31711;47.158;7.346;2022-08-03T08:52:48;25.00;99.90
45983;DHT22;31711;47.158;7.346;2022-08-03T08:55:19;25.00;99.90
45983;DHT22;31711;47.158;7.346;2022-08-03T08:57:49;25.20;99.90
45983;DHT22;31711;47.158;7.346;2022-08-03T09:00:15;25.40;99.90
45983;DHT22;31711;47.158;7.346;2022-08-03T09:02:42;25.40;99.10
45983;DHT22;31711;47.158;7.346;2022-08-03T09:05:13;25.50;98.90
45983;DHT22;31711;47.158;7.346;2022-08-03T09:07:42;25.60;99.90
45983;DHT22;31711;47.158;7.346;2022-08-03T09:10:10;25.70;98.60
45983;DHT22;31711;47.158;7.346;2022-08-03T09:12:50;25.80;98.20
45983;DHT22;31711;47.158;7.346;2022-08-03T09:17:46;26.10;99.40
45983;DHT22;31711;47.158;7.346;2022-08-03T09:20:12;26.20;98.40
45983;DHT22;31711;47.158;7.346;2022-08-03T09:25:42;26.30;96.90
45983;DHT22;31711;47.158;7.346;2022-08-03T09:28:15;26.40;95.80
45983;DHT22;31711;47.158;7.346;2022-08-03T09:30:43;26.40;96.40
45983;DHT22;31711;47.158;7.346;2022-08-03T09:33:13;26.50;96.70
45983;DHT22;31711;47.158;7.346;2022-08-03T09:35:46;26.60;96.10
45983;DHT22;31711;47.158;7.346;2022-08-03T09:38:16;26.80;97.50
45983;DHT22;31711;47.158;7.346;2022-08-03T09:40:43;26.70;96.70
45983;DHT22;31711;47.158;7.346;2022-08-03T09:43:10;26.60;95.90
45983;DHT22;31711;47.158;7.346;2022-08-03T09:45:38;26.70;95.80
45983;DHT22;31711;47.158;7.346;2022-08-03T09:48:25;26.80;96.20
45983;DHT22;31711;47.158;7.346;2022-08-03T09:50:57;26.90;96.80
45983;DHT22;31711;47.158;7.346;2022-08-03T09:53:23;27.00;95.70
45983;DHT22;31711;47.158;7.346;2022-08-03T09:56:00;26.90;96.20
45983;DHT22;31711;47.158;7.346;2022-08-03T09:58:28;26.80;94.50
45983;DHT22;31711;47.158;7.346;2022-08-03T10:01:03;26.80;94.90
45983;DHT22;31711;47.158;7.346;2022-08-03T10:03:32;26.90;94.20
45983;DHT22;31711;47.158;7.346;2022-08-03T10:05:58;27.00;94.60
45983;DHT22;31711;47.158;7.346;2022-08-03T10:08:38;27.10;95.30
45983;DHT22;31711;47.158;7.346;2022-08-03T10:11:04;27.40;94.20
45983;DHT22;31711;47.158;7.346;2022-08-03T10:13:30;27.50;93.40
45983;DHT22;31711;47.158;7.346;2022-08-03T10:15:56;27.50;94.00
45983;DHT22;31711;47.158;7.346;2022-08-03T10:18:22;27.70;94.70
45983;DHT22;31711;47.158;7.346;2022-08-03T10:20:52;27.70;94.30
45983;DHT22;31711;47.158;7.346;2022-08-03T10:23:20;27.80;92.90
45983;DHT22;31711;47.158;7.346;2022-08-03T10:25:53;27.70;93.40
45983;DHT22;31711;47.158;7.346;2022-08-03T10:28:22;27.70;94.10
45983;DHT22;31711;47.158;7.346;2022-08-03T10:30:50;27.90;93.20
45983;DHT22;31711;47.158;7.346;2022-08-03T10:33:32;28.00;93.80
45983;DHT22;31711;47.158;7.346;2022-08-03T10:36:00;28.20;94.90
45983;DHT22;31711;47.158;7.346;2022-08-03T10:38:34;28.30;95.30
45983;DHT22;31711;47.158;7.346;2022-08-03T10:41:02;28.30;94.30
45983;DHT22;31711;47.158;7.346;2022-08-03T10:43:44;28.30;94.00
45983;DHT22;31711;47.158;7.346;2022-08-03T10:46:15;28.50;94.00
45983;DHT22;31711;47.158;7.346;2022-08-03T10:48:42;28.40;93.20
45983;DHT22;31711;47.158;7.346;2022-08-03T10:51:08;28.60;94.50
45983;DHT22;31711;47.158;7.346;2022-08-03T10:53:39;28.70;93.70
45983;DHT22;31711;47.158;7.346;2022-08-03T10:56:41;28.70;94.20
45983;DHT22;31711;47.158;7.346;2022-08-03T11:02:20;28.80;93.20
45983;DHT22;31711;47.158;7.346;2022-08-03T11:05:26;28.80;93.40
45983;DHT22;31711;47.158;7.346;2022-08-03T11:10:46;28.60;93.50
45983;DHT22;31711;47.158;7.346;2022-08-03T11:13:18;28.60;93.60
45983;DHT22;31711;47.158;7.346;2022-08-03T11:15:46;28.70;94.30
45983;DHT22;31711;47.158;7.346;2022-08-03T11:18:14;29.00;94.30
45983;DHT22;31711;47.158;7.346;2022-08-03T11:20:44;29.40;93.30
45983;DHT22;31711;47.158;7.346;2022-08-03T11:23:10;29.40;92.30
45983;DHT22;31711;47.158;7.346;2022-08-03T11:26:08;29.50;93.20
45983;DHT22;31711;47.158;7.346;2022-08-03T11:28:35;29.60;93.20
45983;DHT22;31711;47.158;7.346;2022-08-03T11:34:11;29.90;92.20
45983;DHT22;31711;47.158;7.346;2022-08-03T11:39:43;30.10;92.50
45983;DHT22;31711;47.158;7.346;2022-08-03T11:44:53;30.30;92.30
45983;DHT22;31711;47.158;7.346;2022-08-03T11:47:20;30.20;91.90
45983;DHT22;31711;47.158;7.346;2022-08-03T11:49:47;30.20;91.10
45983;DHT22;31711;47.158;7.346;2022-08-03T11:52:15;30.20;91.60
45983;DHT22;31711;47.158;7.346;2022-08-03T11:54:41;30.40;91.90
45983;DHT22;31711;47.158;7.346;2022-08-03T11:57:07;30.60;91.60
45983;DHT22;31711;47.158;7.346;2022-08-03T11:59:34;30.50;90.80
45983;DHT22;31711;47.158;7.346;2022-08-03T12:02:12;30.60;91.80
45983;DHT22;31711;47.158;7.346;2022-08-03T12:04:58;30.80;91.10
45983;DHT22;31711;47.158;7.346;2022-08-03T12:07:28;30.70;90.40
45983;DHT22;31711;47.158;7.346;2022-08-03T12:10:12;30.60;90.70
45983;DHT22;31711;47.158;7.346;2022-08-03T12:12:40;30.90;90.20
45983;DHT22;31711;47.158;7.346;2022-08-03T12:15:07;31.00;89.60
45983;DHT22;31711;47.158;7.346;2022-08-03T12:17:38;31.20;91.10
45983;DHT22;31711;47.158;7.346;2022-08-03T12:20:06;31.60;90.50
45983;DHT22;31711;47.158;7.346;2022-08-03T12:22:37;31.80;89.10
45983;DHT22;31711;47.158;7.346;2022-08-03T12:25:04;31.60;90.30
45983;DHT22;31711;47.158;7.346;2022-08-03T12:27:31;31.70;88.60
45983;DHT22;31711;47.158;7.346;2022-08-03T12:29:58;31.80;87.90
45983;DHT22;31711;47.158;7.346;2022-08-03T12:32:25;32.00;89.10
45983;DHT22;31711;47.158;7.346;2022-08-03T12:34:51;31.90;87.20
45983;DHT22;31711;47.158;7.346;2022-08-03T12:37:18;32.10;86.10
45983;DHT22;31711;47.158;7.346;2022-08-03T12:39:56;32.30;88.80
45983;DHT22;31711;47.158;7.346;2022-08-03T12:42:34;32.60;84.80
45983;DHT22;31711;47.158;7.346;2022-08-03T12:45:38;32.60;82.30
45983;DHT22;31711;47.158;7.346;2022-08-03T12:48:08;32.70;86.80
45983;DHT22;31711;47.158;7.346;2022-08-03T12:50:35;33.00;83.30
45983;DHT22;31711;47.158;7.346;2022-08-03T12:53:04;33.10;80.50
45983;DHT22;31711;47.158;7.346;2022-08-03T12:55:32;33.00;82.80
45983;DHT22;31711;47.158;7.346;2022-08-03T12:58:06;33.50;83.20
45983;DHT22;31711;47.158;7.346;2022-08-03T13:00:32;33.70;80.60
45983;DHT22;31711;47.158;7.346;2022-08-03T13:03:03;33.90;81.60
45983;DHT22;31711;47.158;7.346;2022-08-03T13:05:30;33.90;78.00
45983;DHT22;31711;47.158;7.346;2022-08-03T13:07:57;33.50;78.50
45983;DHT22;31711;47.158;7.346;2022-08-03T13:10:31;33.50;78.30
45983;DHT22;31711;47.158;7.346;2022-08-03T13:12:58;33.70;78.10
45983;DHT22;31711;47.158;7.346;2022-08-03T13:15:29;33.90;77.10
45983;DHT22;31711;47.158;7.346;2022-08-03T13:17:56;34.10;77.70
45983;DHT22;31711;47.158;7.346;2022-08-03T13:20:22;33.90;77.20
45983;DHT22;31711;47.158;7.346;2022-08-03T13:22:48;34.10;76.60
45983;DHT22;31711;47.158;7.346;2022-08-03T13:25:15;34.20;80.50
45983;DHT22;31711;47.158;7.346;2022-08-03T13:27:41;34.50;78.20
45983;DHT22;31711;47.158;7.346;2022-08-03T13:30:08;34.60;78.80
45983;DHT22;31711;47.158;7.346;2022-08-03T13:32:34;34.40;77.00
45983;DHT22;31711;47.158;7.346;2022-08-03T13:35:01;34.70;77.10
45983;DHT22;31711;47.158;7.346;2022-08-03T13:37:28;34.90;75.30
45983;DHT22;31711;47.158;7.346;2022-08-03T13:39:54;35.00;74.60
45983;DHT22;31711;47.158;7.346;2022-08-03T13:42:20;34.90;75.90
45983;DHT22;31711;47.158;7.346;2022-08-03T13:44:46;35.10;77.00
45983;DHT22;31711;47.158;7.346;2022-08-03T13:47:12;35.10;75.70
45983;DHT22;31711;47.158;7.346;2022-08-03T13:49:38;35.40;75.50
45983;DHT22;31711;47.158;7.346;2022-08-03T13:52:04;35.20;74.30
45983;DHT22;31711;47.158;7.346;2022-08-03T13:54:30;34.40;74.10
45983;DHT22;31711;47.158;7.346;2022-08-03T13:56:57;34.80;77.60
45983;DHT22;31711;47.158;7.346;2022-08-03T13:59:24;35.10;74.60
45983;DHT22;31711;47.158;7.346;2022-08-03T14:01:51;35.00;76.00
45983;DHT22;31711;47.158;7.346;2022-08-03T14:04:18;35.20;74.20
45983;DHT22;31711;47.158;7.346;2022-08-03T14:06:44;35.20;74.40
45983;DHT22;31711;47.158;7.346;2022-08-03T14:09:13;35.20;74.40
45983;DHT22;31711;47.158;7.346;2022-08-03T14:11:40;35.30;75.90
45983;DHT22;31711;47.158;7.346;2022-08-03T14:14:06;35.40;76.00
45983;DHT22;31711;47.158;7.346;2022-08-03T14:16:32;35.30;75.90
45983;DHT22;31711;47.158;7.346;2022-08-03T14:18:58;35.20;76.10
45983;DHT22;31711;47.158;7.346;2022-08-03T14:21:24;35.30;76.80
45983;DHT22;31711;47.158;7.346;2022-08-03T14:23:50;35.10;77.00
45983;DHT22;31711;47.158;7.346;2022-08-03T14:26:16;35.10;74.60
45983;DHT22;31711;47.158;7.346;2022-08-03T14:28:44;35.10;74.50
45983;DHT22;31711;47.158;7.346;2022-08-03T14:31:11;35.00;76.30
45983;DHT22;31711;47.158;7.346;2022-08-03T14:33:37;35.00;75.90
45983;DHT22;31711;47.158;7.346;2022-08-03T14:36:03;35.00;76.70
45983;DHT22;31711;47.158;7.346;2022-08-03T14:38:32;35.10;76.20
45983;DHT22;31711;47.158;7.346;2022-08-03T14:40:58;35.20;75.20
45983;DHT22;31711;47.158;7.346;2022-08-03T14:43:23;35.20;74.60
45983;DHT22;31711;47.158;7.346;2022-08-03T14:45:51;34.90;76.40
45983;DHT22;31711;47.158;7.346;2022-08-03T14:48:22;35.00;76.00
45983;DHT22;31711;47.158;7.346;2022-08-03T14:50:48;35.00;74.70
45983;DHT22;31711;47.158;7.346;2022-08-03T14:53:15;35.00;74.10
45983;DHT22;31711;47.158;7.346;2022-08-03T14:55:44;34.90;73.10
45983;DHT22;31711;47.158;7.346;2022-08-03T14:58:11;34.80;72.50
45983;DHT22;31711;47.158;7.346;2022-08-03T15:00:37;34.70;73.40
45983;DHT22;31711;47.158;7.346;2022-08-03T15:03:03;34.70;73.50
45983;DHT22;31711;47.158;7.346;2022-08-03T15:05:29;34.60;72.90
45983;DHT22;31711;47.158;7.346;2022-08-03T15:07:55;34.40;69.40
45983;DHT22;31711;47.158;7.346;2022-08-03T15:10:21;34.30;72.00
45983;DHT22;31711;47.158;7.346;2022-08-03T15:12:47;34.30;73.10
45983;DHT22;31711;47.158;7.346;2022-08-03T15:15:13;34.40;72.90
45983;DHT22;31711;47.158;7.346;2022-08-03T15:17:39;34.40;72.80
45983;DHT22;31711;47.158;7.346;2022-08-03T15:20:06;34.30;72.00
45983;DHT22;31711;47.158;7.346;2022-08-03T15:22:33;34.20;70.50
45983;DHT22;31711;47.158;7.346;2022-08-03T15:25:01;34.20;73.20
45983;DHT22;31711;47.158;7.346;2022-08-03T15:27:27;34.10;73.50
45983;DHT22;31711;47.158;7.346;2022-08-03T15:29:53;34.10;73.80
45983;DHT22;31711;47.158;7.346;2022-08-03T15:32:19;34.10;72.60
45983;DHT22;31711;47.158;7.346;2022-08-03T15:34:46;34.00;73.40
45983;DHT22;31711;47.158;7.346;2022-08-03T15:37:12;33.90;72.80
45983;DHT22;31711;47.158;7.346;2022-08-03T15:39:38;33.90;71.50
45983;DHT22;31711;47.158;7.346;2022-08-03T15:42:04;33.80;69.90
45983;DHT22;31711;47.158;7.346;2022-08-03T15:44:30;33.70;70.00
45983;DHT22;31711;47.158;7.346;2022-08-03T15:46:56;33.60;73.00
45983;DHT22;31711;47.158;7.346;2022-08-03T15:49:22;33.60;74.50
45983;DHT22;31711;47.158;7.346;2022-08-03T15:51:48;33.50;72.10
45983;DHT22;31711;47.158;7.346;2022-08-03T15:54:13;33.50;72.50
45983;DHT22;31711;47.158;7.346;2022-08-03T15:56:39;33.50;73.10
45983;DHT22;31711;47.158;7.346;2022-08-03T15:59:10;33.50;71.80
45983;DHT22;31711;47.158;7.346;2022-08-03T16:01:37;33.50;73.30
45983;DHT22;31711;47.158;7.346;2022-08-03T16:04:04;33.50;73.50
45983;DHT22;31711;47.158;7.346;2022-08-03T16:06:30;33.50;71.70